Time;durP1;ratioP1;P1;durP2;ratioP2;P2;SDS_P1;SDS_P2;PMS_P1;PMS_P2;Temp;Humidity;BMP_temperature;BMP_pressure;BME280_temperature;BME280_humidity;BME280_pressure;Samples;Min_cycle;Max_cycle;Signal;HPM_P1;HPM_P2
2022/12/05 00:00:25;;;;;;;58.23;29.65;;;;;;;1.60;87.90;101475.35;1671755;84;21382;-76
2022/12/05 00:03:09;;;;;;;60.53;29.60;;;;;;;1.60;87.90;101477.91;1672333;84;20925;-76
2022/12/05 00:05:54;;;;;;;64.17;30.60;;;;;;;1.58;87.91;101471.48;1673805;83;21466;-76
2022/12/05 00:08:39;;;;;;;59.80;29.45;;;;;;;1.57;87.85;101473.97;1671981;84;20894;-76
2022/12/05 00:11:30;;;;;;;54.10;27.87;;;;;;;1.59;87.93;101483.41;1670921;84;20898;-76
2022/12/05 00:14:16;;;;;;;55.75;29.07;;;;;;;1.59;87.91;101478.72;1670321;85;20937;-76
2022/12/05 00:17:01;;;;;;;56.23;28.80;;;;;;;1.59;88.01;101479.58;1673214;83;27035;-76
2022/12/05 00:19:47;;;;;;;61.08;28.80;;;;;;;1.57;87.85;101475.25;1673207;83;21509;-76
2022/12/05 00:22:37;;;;;;;54.63;29.13;;;;;;;1.54;87.96;101481.14;1670909;84;20989;-76
2022/12/05 00:25:21;;;;;;;53.33;26.73;;;;;;;1.52;87.96;101478.95;1670110;85;20957;-76
2022/12/05 00:28:06;;;;;;;55.23;27.20;;;;;;;1.50;87.99;101479.70;1670770;85;20977;-76
2022/12/05 00:30:51;;;;;;;56.95;26.57;;;;;;;1.48;88.02;101480.92;1670457;85;21496;-76
2022/12/05 00:33:36;;;;;;;54.55;25.77;;;;;;;1.47;88.00;101471.55;1670620;85;21735;-76
2022/12/05 00:36:25;;;;;;;54.23;27.52;;;;;;;1.50;88.05;101480.98;1670690;84;20941;-76
2022/12/05 00:39:14;;;;;;;53.55;26.80;;;;;;;1.49;88.05;101469.05;1670032;85;21366;-76
2022/12/05 00:41:58;;;;;;;56.20;26.40;;;;;;;1.49;88.01;101469.05;1672257;85;20981;-76
2022/12/05 00:44:43;;;;;;;58.60;26.30;;;;;;;1.50;88.05;101465.28;1668976;85;21299;-76
2022/12/05 00:47:28;;;;;;;55.90;26.45;;;;;;;1.51;88.02;101458.09;1670098;85;20906;-76
2022/12/05 00:50:13;;;;;;;52.17;26.70;;;;;;;1.52;88.07;101457.69;1669700;83;20910;-76
2022/12/05 00:52:58;;;;;;;60.28;27.75;;;;;;;1.52;88.01;101455.14;1672582;83;21501;-76
2022/12/05 00:55:43;;;;;;;55.67;25.77;;;;;;;1.53;88.06;101456.87;1671727;84;20901;-76
2022/12/05 00:58:29;;;;;;;58.23;27.02;;;;;;;1.54;88.03;101463.70;1670325;84;20950;-76
2022/12/05 01:01:21;;;;;;;51.20;27.43;;;;;;;1.54;88.04;101472.62;1672958;83;20945;-76
2022/12/05 01:04:14;;;;;;;55.35;27.27;;;;;;;1.51;88.10;101469.56;1670742;84;21465;-76
2022/12/05 01:06:58;;;;;;;48.60;25.02;;;;;;;1.49;88.06;101468.64;1669256;85;20964;-76
2022/12/05 01:09:43;;;;;;;49.30;25.12;;;;;;;1.49;88.10;101461.00;1672694;83;21013;-76
2022/12/05 01:12:29;;;;;;;54.27;25.08;;;;;;;1.50;88.11;101466.56;1672272;83;21408;-76
2022/12/05 01:15:14;;;;;;;63.25;27.73;;;;;;;1.52;88.15;101466.20;1671297;84;20890;-76
2022/12/05 01:17:59;;;;;;;58.25;27.73;;;;;;;1.56;88.16;101474.82;1671428;83;20945;-76
2022/12/05 01:20:47;;;;;;;62.03;27.20;;;;;;;1.56;88.13;101473.55;1673265;84;20901;-76
2022/12/05 01:23:32;;;;;;;51.42;26.05;;;;;;;1.56;88.14;101466.73;1671444;83;20917;-76
2022/12/05 01:26:19;;;;;;;55.63;25.43;;;;;;;1.53;88.08;101476.86;1669161;84;20917;-76
2022/12/05 01:29:04;;;;;;;56.65;26.05;;;;;;;1.52;88.10;101478.95;1670383;85;20933;-76
2022/12/05 01:31:49;;;;;;;53.40;25.17;;;;;;;1.50;88.16;101480.98;1671069;84;20937;-75
2022/12/05 01:34:34;;;;;;;52.00;26.17;;;;;;;1.50;88.09;101478.44;1655111;85;20913;-76
2022/12/05 01:37:19;;;;;;;48.20;23.90;;;;;;;1.47;88.12;101484.29;1670927;83;20997;-76
2022/12/05 01:40:06;;;;;;;42.98;22.13;;;;;;;1.48;88.17;101483.88;1673681;84;21864;-76
2022/12/05 01:42:51;;;;;;;57.00;26.97;;;;;;;1.48;88.20;101487.30;1675301;84;21403;-76
2022/12/05 01:45:42;;;;;;;52.93;24.35;;;;;;;1.47;88.20;101475.38;1672103;84;20984;-76
2022/12/05 01:48:35;;;;;;;55.15;26.82;;;;;;;1.46;88.14;101474.91;1669850;84;21414;-76
2022/12/05 01:51:19;;;;;;;49.45;24.80;;;;;;;1.46;88.18;101467.67;1671082;84;20958;-76
2022/12/05 01:54:06;;;;;;;56.23;26.35;;;;;;;1.47;88.17;101469.00;1672731;83;21009;-76
2022/12/05 01:57:01;;;;;;;52.10;24.82;;;;;;;1.43;88.18;101461.20;1673427;84;20917;-76
2022/12/05 01:59:54;;;;;;;52.33;24.00;;;;;;;1.45;88.24;101467.21;1672142;84;21447;-76
2022/12/05 02:02:47;;;;;;;59.93;26.77;;;;;;;1.46;88.24;101460.89;1670314;85;20969;-76
2022/12/05 02:05:35;;;;;;;59.45;26.75;;;;;;;1.48;88.26;101454.17;1673223;83;20941;-76
2022/12/05 02:08:20;;;;;;;55.85;25.23;;;;;;;1.48;88.21;101454.17;1672339;83;20994;-76
2022/12/05 02:11:08;;;;;;;54.58;26.57;;;;;;;1.49;88.23;101454.63;1671443;84;21025;-76
2022/12/05 02:14:29;;;;;;;54.35;25.37;;;;;;;1.47;88.16;101449.02;1672523;84;20937;-76
2022/12/05 02:17:32;;;;;;;56.80;26.57;;;;;;;1.47;88.25;101454.98;1674184;85;20906;-76
2022/12/05 02:20:56;;;;;;;52.03;27.20;;;;;;;1.50;88.30;101451.67;1672000;84;20958;-76
2022/12/05 02:24:04;;;;;;;51.95;25.17;;;;;;;1.52;88.27;101453.87;1673420;83;21888;-76
2022/12/05 02:26:57;;;;;;;50.20;22.67;;;;;;;1.52;88.24;101453.45;1671075;85;20925;-76
2022/12/05 02:30:11;;;;;;;52.15;25.23;;;;;;;1.50;88.22;101450.40;1671707;84;21423;-76
2022/12/05 02:33:13;;;;;;;51.75;24.00;;;;;;;1.47;88.20;101449.02;1668385;84;21744;-76
2022/12/05 02:36:30;;;;;;;42.93;22.27;;;;;;;1.44;88.18;101456.16;1639999;87;20942;-76
2022/12/05 02:39:23;;;;;;;47.55;22.87;;;;;;;1.41;88.22;101459.87;1620760;87;20955;-76
2022/12/05 02:42:15;;;;;;;46.40;23.47;;;;;;;1.40;88.23;101473.83;1621088;86;20967;-76
2022/12/05 02:45:06;;;;;;;43.15;22.13;;;;;;;1.37;88.21;101455.48;1619398;87;20987;-76
2022/12/05 02:47:53;;;;;;;43.15;21.60;;;;;;;1.36;88.26;101449.05;1619558;87;20967;-76
2022/12/05 02:50:39;;;;;;;47.27;22.52;;;;;;;1.36;88.24;101451.61;1617934;87;21034;-76
2022/12/05 02:53:26;;;;;;;45.63;22.42;;;;;;;1.35;88.27;101448.19;1617079;87;21031;-76
2022/12/05 02:56:11;;;;;;;49.73;23.75;;;;;;;1.36;88.23;101443.55;1618385;87;21098;-75
2022/12/05 02:58:56;;;;;;;49.50;24.85;;;;;;;1.37;88.28;101441.47;1615785;87;20966;-76
2022/12/05 03:01:45;;;;;;;53.55;24.65;;;;;;;1.38;88.30;101443.20;1616107;86;21424;-76
2022/12/05 03:04:31;;;;;;;57.17;26.05;;;;;;;1.42;88.36;101437.80;1615537;86;21054;-76
2022/12/05 03:07:18;;;;;;;51.55;24.77;;;;;;;1.44;88.34;101439.99;1607632;88;21384;-76
2022/12/05 03:10:07;;;;;;;55.43;25.68;;;;;;;1.44;88.30;101443.81;1604609;87;303018;-76
2022/12/05 03:13:03;;;;;;;54.55;23.62;;;;;;;1.43;88.29;101436.98;1627874;87;21045;-76
2022/12/05 03:15:53;;;;;;;46.42;22.87;;;;;;;1.41;88.27;101437.34;1640079;86;21480;-76
2022/12/05 03:18:43;;;;;;;48.33;24.27;;;;;;;1.41;88.32;101443.71;1641589;86;20929;-76
2022/12/05 03:21:34;;;;;;;45.17;24.05;;;;;;;1.40;88.29;101439.43;1636082;86;20932;-76
2022/12/05 03:24:19;;;;;;;47.73;21.80;;;;;;;1.39;88.30;101444.94;1640428;87;20976;-76
2022/12/05 03:27:34;;;;;;;47.78;22.87;;;;;;;1.37;88.22;101446.56;1642662;86;21453;-77
2022/12/05 03:30:21;;;;;;;45.12;21.50;;;;;;;1.36;88.26;101443.96;1624148;86;21004;-76
2022/12/05 03:33:25;;;;;;;46.55;23.20;;;;;;;1.33;88.27;101443.04;1640712;86;20960;-76
2022/12/05 03:36:18;;;;;;;44.70;22.15;;;;;;;1.34;88.28;101441.36;1639748;85;21562;-76
2022/12/05 03:39:19;;;;;;;45.40;23.18;;;;;;;1.34;88.31;101437.54;1603958;88;20934;-76
2022/12/05 03:42:09;;;;;;;47.78;22.22;;;;;;;1.33;88.30;101439.22;1598740;87;20942;-76
2022/12/05 03:44:59;;;;;;;51.58;24.55;;;;;;;1.33;88.24;101440.90;1602985;87;20971;-76
2022/12/05 03:48:01;;;;;;;47.88;24.95;;;;;;;1.32;88.26;101448.08;1618240;86;21041;-76
2022/12/05 03:50:48;;;;;;;56.90;25.92;;;;;;;1.29;88.26;101448.84;1640299;86;21366;-76
2022/12/05 03:53:44;;;;;;;57.53;26.12;;;;;;;1.31;88.35;101438.70;1638241;86;20971;-76
2022/12/05 03:56:40;;;;;;;51.92;26.90;;;;;;;1.33;88.42;101449.41;1634953;85;21431;-76
2022/12/05 03:59:37;;;;;;;;;;;;;;;1.33;88.39;101449.81;1645565;85;21358;-76
2022/12/05 04:02:33;;;;;;;52.17;25.02;;;;;;;1.32;88.37;101454.05;1641517;86;20196;-76
2022/12/05 04:05:20;;;;;;;;;;;;;;;1.30;88.33;101458.62;1653681;84;20990;-76
2022/12/05 04:08:13;;;;;;;59.65;23.38;;;;;;;1.28;88.38;101462.39;1644818;85;20140;-76
2022/12/05 04:11:05;;;;;;;50.90;24.47;;;;;;;1.27;88.38;101463.20;1632688;86;20950;-76
2022/12/05 04:14:06;;;;;;;51.80;23.98;;;;;;;1.28;88.37;101470.44;1638496;86;20955;-76
2022/12/05 04:17:04;;;;;;;47.45;24.87;;;;;;;1.26;88.35;101470.80;1641700;86;21291;-76
2022/12/05 04:23:08;;;;;;;53.63;25.05;;;;;;;1.24;88.37;101467.33;1637344;85;20934;-76
2022/12/05 04:26:20;;;;;;;57.58;25.82;;;;;;;1.24;88.37;101460.55;1639909;85;21761;-76
2022/12/05 04:29:10;;;;;;;52.03;24.45;;;;;;;1.26;88.37;101459.33;1611293;87;21007;-76
2022/12/05 04:31:58;;;;;;;53.90;26.80;;;;;;;1.26;88.46;101445.32;1610068;86;21048;-76
2022/12/05 04:34:48;;;;;;;46.10;24.95;;;;;;;1.29;88.48;101440.33;1607685;87;21422;-76
2022/12/05 04:37:37;;;;;;;48.28;25.08;;;;;;;1.30;88.49;101431.88;1611798;87;21033;-76
2022/12/05 04:40:33;;;;;;;50.58;26.07;;;;;;;1.29;88.46;101425.05;1608826;87;20950;-75
2022/12/05 04:43:20;;;;;;;52.17;25.72;;;;;;;1.27;88.40;101430.50;1612676;87;21025;-76
2022/12/05 04:46:08;;;;;;;53.90;26.45;;;;;;;1.23;88.37;101417.19;1597442;88;21365;-76
2022/12/05 04:48:57;;;;;;;55.75;26.33;;;;;;;1.24;88.46;101422.75;1589636;87;21105;-76
2022/12/05 04:51:44;;;;;;;52.17;25.15;;;;;;;1.25;88.46;101418.11;1583350;88;21375;-76
2022/12/05 04:54:37;;;;;;;50.83;24.92;;;;;;;1.25;88.46;101412.61;1582005;87;21490;-76
2022/12/05 04:57:30;;;;;;;54.98;25.00;;;;;;;1.26;88.45;101417.30;1583811;89;21650;-76
2022/12/05 05:00:15;;;;;;;49.60;25.15;;;;;;;1.24;88.45;101423.61;1603052;86;20926;-76
2022/12/05 05:03:18;;;;;;;58.50;27.45;;;;;;;1.23;88.45;101410.82;1616851;86;21003;-76
2022/12/05 05:06:04;;;;;;;55.80;25.20;;;;;;;1.22;88.42;101404.86;1613872;87;20958;-76
2022/12/05 05:08:53;;;;;;;53.50;26.25;;;;;;;1.23;88.49;101410.41;1614493;86;20938;-77
2022/12/05 05:11:38;;;;;;;56.13;26.42;;;;;;;1.25;88.51;101413.88;1605771;88;21387;-78
2022/12/05 05:14:23;;;;;;;63.23;27.05;;;;;;;1.26;88.52;101410.52;1664959;84;20986;-78
2022/12/05 05:17:08;;;;;;;52.15;24.40;;;;;;;1.27;88.48;101410.12;1666231;83;21344;-78
2022/12/05 05:20:22;;;;;;;53.90;26.42;;;;;;;1.27;88.49;101407.56;1669952;82;20958;-78
2022/12/05 05:22:39;;;;;;;62.23;27.73;;;;;;;1.28;88.49;101405.07;1666846;84;21533;-78
2022/12/05 05:25:24;;;;;;;54.08;27.65;;;;;;;1.29;88.50;101395.34;1662422;84;20980;-78
2022/12/05 05:28:09;;;;;;;61.93;29.73;;;;;;;1.31;88.52;101399.22;1665957;83;21442;-78
2022/12/05 05:30:54;;;;;;;60.15;28.73;;;;;;;1.28;88.42;101416.94;1665908;84;21886;-78
2022/12/05 05:33:39;;;;;;;53.42;25.40;;;;;;;1.24;88.37;101418.52;1662381;84;20918;-77
2022/12/05 05:36:26;;;;;;;58.08;28.23;;;;;;;1.25;88.48;101416.43;1665440;84;21364;-76
2022/12/05 05:39:14;;;;;;;49.15;24.72;;;;;;;1.25;88.49;101418.11;1644281;83;21433;-77
2022/12/05 05:41:58;;;;;;;53.58;26.48;;;;;;;1.23;88.51;101418.06;1664368;83;20962;-77
2022/12/05 05:44:44;;;;;;;64.92;27.00;;;;;;;1.23;88.52;101419.33;1662191;84;20966;-78
2022/12/05 05:47:29;;;;;;;58.65;27.15;;;;;;;1.24;88.49;101421.47;1671212;83;21135;-77
2022/12/05 05:50:15;;;;;;;54.95;26.57;;;;;;;1.24;88.53;101420.20;1668295;82;20903;-77
2022/12/05 05:52:59;;;;;;;60.95;28.35;;;;;;;1.26;88.55;101426.22;1630421;86;21353;-77
2022/12/05 05:55:44;;;;;;;53.00;25.60;;;;;;;1.23;88.51;101423.16;1630666;87;20955;-78
2022/12/05 05:58:29;;;;;;;55.50;24.23;;;;;;;1.22;88.48;101423.09;1630048;85;21068;-78
2022/12/05 06:01:21;;;;;;;54.00;25.50;;;;;;;1.22;88.54;101420.14;1624161;84;21042;-78
2022/12/05 06:04:06;;;;;;;51.63;24.70;;;;;;;1.23;88.59;101411.69;1630914;86;20959;-78
2022/12/05 06:06:51;;;;;;;61.70;28.12;;;;;;;1.24;88.59;101409.60;1633489;84;20998;-78
2022/12/05 06:09:36;;;;;;;62.62;29.05;;;;;;;1.25;88.58;101406.65;1632356;84;21050;-78
2022/12/05 06:12:21;;;;;;;61.35;27.82;;;;;;;1.27;88.58;101402.06;1623279;84;20952;-78
2022/12/05 06:15:08;;;;;;;64.27;31.10;;;;;;;1.26;88.54;101397.78;1633036;86;21002;-78
2022/12/05 06:17:53;;;;;;;55.25;28.15;;;;;;;1.26;88.58;101388.87;1629993;84;20954;-78
2022/12/05 06:20:38;;;;;;;59.05;28.90;;;;;;;1.28;88.59;101402.52;1628382;84;21071;-78
2022/12/05 06:23:25;;;;;;;59.23;27.30;;;;;;;1.27;88.58;101400.79;1631783;87;20963;-78
2022/12/05 06:26:14;;;;;;;61.95;30.77;;;;;;;1.28;88.57;101407.63;1631191;87;21782;-78
2022/12/05 06:28:59;;;;;;;65.45;28.95;;;;;;;1.25;88.54;101402.42;1627767;84;21361;-78
2022/12/05 06:31:44;;;;;;;59.45;28.70;;;;;;;1.25;88.58;101405.38;1633275;86;21543;-78
2022/12/05 06:34:31;;;;;;;52.95;27.30;;;;;;;1.26;88.62;101416.89;1630967;87;20907;-78
2022/12/05 06:37:15;;;;;;;55.67;26.62;;;;;;;1.22;88.57;101418.88;1617588;86;21000;-78
2022/12/05 06:40:00;;;;;;;61.30;27.80;;;;;;;1.22;88.61;101427.78;1632590;84;21808;-78
2022/12/05 06:42:45;;;;;;;51.25;25.77;;;;;;;1.22;88.61;101427.78;1623980;86;21318;-78
2022/12/05 06:45:30;;;;;;;59.15;28.87;;;;;;;1.21;88.62;101427.33;1626573;84;21424;-78
2022/12/05 06:48:15;;;;;;;54.85;28.00;;;;;;;1.19;88.65;101423.86;1629283;86;21765;-78
2022/12/05 06:51:00;;;;;;;51.92;26.70;;;;;;;1.20;88.65;101417.08;1633734;86;20923;-77
2022/12/05 06:53:45;;;;;;;57.62;30.12;;;;;;;1.15;88.62;101415.65;1632232;85;21043;-78
2022/12/05 06:56:30;;;;;;;59.05;28.77;;;;;;;1.16;88.69;101416.11;1633200;86;20946;-78
2022/12/05 06:59:15;;;;;;;69.27;31.05;;;;;;;1.16;88.71;101414.84;1634291;85;21411;-78
2022/12/05 07:01:59;;;;;;;65.75;31.68;;;;;;;1.17;88.79;101410.20;1629113;84;20918;-78
2022/12/05 07:04:45;;;;;;;58.95;29.75;;;;;;;1.19;88.80;101418.77;1630619;85;21482;-78
2022/12/05 07:07:30;;;;;;;60.50;31.62;;;;;;;1.18;88.77;101418.30;1631761;85;21443;-78
2022/12/05 07:10:14;;;;;;;61.77;30.40;;;;;;;1.17;88.73;101421.66;1632366;84;21511;-78
2022/12/05 07:12:59;;;;;;;62.78;30.65;;;;;;;1.18;88.74;101419.58;1627387;86;21390;-77
2022/12/05 07:15:49;;;;;;;63.78;31.00;;;;;;;1.19;88.77;101420.04;1631180;84;21509;-78
2022/12/05 07:18:35;;;;;;;64.80;31.57;;;;;;;1.18;88.80;101429.77;1631806;86;21565;-78
2022/12/05 07:21:21;;;;;;;67.20;31.97;;;;;;;1.15;88.71;101424.56;1626016;84;21050;-78
2022/12/05 07:24:06;;;;;;;63.38;31.15;;;;;;;1.16;88.78;101436.48;1632981;85;21435;-78
2022/12/05 07:26:51;;;;;;;64.47;32.60;;;;;;;1.16;88.74;101431.39;1624603;84;21440;-78
2022/12/05 07:29:36;;;;;;;59.67;30.00;;;;;;;1.17;88.78;101433.53;1630259;84;21523;-78
2022/12/05 07:32:21;;;;;;;61.40;30.27;;;;;;;1.19;88.83;101435.32;1632033;86;21498;-77
2022/12/05 07:35:07;;;;;;;64.67;30.97;;;;;;;1.21;88.83;101434.97;1630326;86;20974;-77
2022/12/05 07:37:51;;;;;;;66.70;31.37;;;;;;;1.20;88.81;101429.41;1634021;85;21042;-79
2022/12/05 07:40:37;;;;;;;55.00;28.00;;;;;;;1.21;88.82;101430.28;1632535;84;20981;-78
2022/12/05 07:43:22;;;;;;;63.17;30.90;;;;;;;1.22;88.83;101435.84;1611118;86;21441;-78
2022/12/05 07:46:10;;;;;;;60.73;29.15;;;;;;;1.23;88.81;101433.75;1623938;86;21401;-78
2022/12/05 07:48:55;;;;;;;59.53;29.77;;;;;;;1.24;88.83;101435.08;1631375;84;21031;-78
2022/12/05 07:51:40;;;;;;;60.83;29.65;;;;;;;1.24;88.76;101436.34;1631591;86;21446;-78
2022/12/05 07:54:24;;;;;;;59.73;30.40;;;;;;;1.21;88.74;101427.33;1633831;86;20935;-78
2022/12/05 07:57:09;;;;;;;58.80;29.80;;;;;;;1.20;88.77;101433.23;1625585;84;20988;-78
2022/12/05 07:59:54;;;;;;;64.55;29.45;;;;;;;1.23;88.85;101436.30;1635890;84;20954;-78
2022/12/05 08:02:39;;;;;;;56.92;29.57;;;;;;;1.25;88.82;101432.98;1633459;86;20947;-78
2022/12/05 08:05:24;;;;;;;61.42;29.07;;;;;;;1.23;88.76;101424.42;1628257;85;20990;-78
2022/12/05 08:08:09;;;;;;;61.02;29.55;;;;;;;1.23;88.76;101423.16;1631012;85;20947;-78
2022/12/05 08:10:54;;;;;;;61.37;31.42;;;;;;;1.25;88.85;101420.25;1633754;84;20998;-78
2022/12/05 08:13:39;;;;;;;60.35;31.25;;;;;;;1.28;88.84;101416.94;1633649;85;21537;-78
2022/12/05 08:16:27;;;;;;;59.85;29.23;;;;;;;1.30;88.86;101418.73;1632131;85;20955;-78
2022/12/05 08:19:12;;;;;;;57.85;30.68;;;;;;;1.33;88.87;101411.19;1631895;84;20954;-78
2022/12/05 08:21:57;;;;;;;58.83;30.27;;;;;;;1.34;88.86;101404.41;1632809;86;25060;-78
2022/12/05 08:24:43;;;;;;;57.78;28.92;;;;;;;1.36;88.85;101410.43;1632197;84;21011;-78
2022/12/05 08:27:28;;;;;;;55.28;28.23;;;;;;;1.39;88.85;101408.39;1632954;84;20931;-78
2022/12/05 08:30:13;;;;;;;57.20;30.62;;;;;;;1.38;88.80;101413.90;1631327;85;20919;-78
2022/12/05 08:32:58;;;;;;;52.15;29.72;;;;;;;1.39;88.80;101410.94;1601637;87;21036;-77
2022/12/05 08:35:43;;;;;;;49.70;26.33;;;;;;;1.43;88.89;101412.78;1582053;88;20926;-78
2022/12/05 08:38:27;;;;;;;52.73;27.98;;;;;;;1.45;88.85;101415.84;1631263;85;21006;-78
2022/12/05 08:41:16;;;;;;;54.48;29.07;;;;;;;1.47;88.85;101427.36;1634191;85;20974;-78
2022/12/05 08:44:04;;;;;;;47.73;27.10;;;;;;;1.47;88.82;101430.77;1633762;84;21082;-78
2022/12/05 08:46:50;;;;;;;51.08;27.45;;;;;;;1.48;88.85;101431.23;1632065;85;20962;-78
2022/12/05 08:49:35;;;;;;;55.28;27.22;;;;;;;1.49;88.80;101430.83;1637485;84;20985;-78
2022/12/05 08:52:21;;;;;;;48.50;27.00;;;;;;;1.50;88.86;101437.25;1640663;85;21557;-78
2022/12/05 08:55:07;;;;;;;52.83;27.98;;;;;;;1.54;88.87;101444.19;1644010;86;21424;-78
2022/12/05 08:57:52;;;;;;;52.38;28.90;;;;;;;1.56;88.86;101438.70;1644067;84;21792;-78
2022/12/05 09:00:38;;;;;;;57.90;30.75;;;;;;;1.57;88.86;101437.88;1635033;84;20964;-78
2022/12/05 09:03:23;;;;;;;55.33;29.87;;;;;;;1.59;88.83;101440.48;1639599;85;21406;-78
2022/12/05 09:06:15;;;;;;;51.50;28.45;;;;;;;1.59;88.80;101433.70;1638840;84;21305;-78
2022/12/05 09:09:03;;;;;;;54.48;29.98;;;;;;;1.58;88.79;101428.14;1636027;84;21377;-78
2022/12/05 09:11:49;;;;;;;54.33;27.82;;;;;;;1.60;88.83;101429.47;1635864;86;20998;-78
2022/12/05 09:14:34;;;;;;;52.58;27.75;;;;;;;1.59;88.81;101426.47;1637974;85;20995;-78
2022/12/05 09:17:19;;;;;;;54.90;29.15;;;;;;;1.58;88.78;101423.45;1641560;85;21400;-78
2022/12/05 09:20:07;;;;;;;50.75;28.55;;;;;;;1.59;88.83;101424.78;1638357;86;20990;-78
2022/12/05 09:22:52;;;;;;;55.88;29.32;;;;;;;1.61;88.85;101429.93;1639282;86;21009;-78
2022/12/05 09:25:37;;;;;;;57.38;28.98;;;;;;;1.62;88.82;101423.61;1636194;86;20946;-78
2022/12/05 09:28:22;;;;;;;60.88;29.60;;;;;;;1.64;88.83;101410.91;1634507;86;20973;-78
2022/12/05 09:31:14;;;;;;;58.50;28.87;;;;;;;1.67;88.91;101409.74;1634009;85;20950;-78
2022/12/05 09:34:00;;;;;;;59.20;30.25;;;;;;;1.69;88.86;101414.48;1634705;84;21470;-78
2022/12/05 09:36:50;;;;;;;59.88;29.12;;;;;;;1.72;88.85;101422.23;1634223;84;20926;-78
2022/12/05 09:39:33;;;;;;;57.53;29.15;;;;;;;1.73;88.86;101415.45;1624906;86;21054;-78
2022/12/05 09:42:41;;;;;;;53.05;28.52;;;;;;;1.77;88.89;101414.33;1637502;85;21046;-78
2022/12/05 09:45:34;;;;;;;56.53;28.57;;;;;;;1.80;88.86;101419.94;1641518;84;21050;-78
2022/12/05 09:48:21;;;;;;;52.10;28.50;;;;;;;1.79;88.81;101410.55;1636664;84;21513;-78
2022/12/05 09:51:09;;;;;;;49.80;25.57;;;;;;;1.81;88.82;101406.37;1634282;85;20950;-78
2022/12/05 09:53:54;;;;;;;52.58;27.60;;;;;;;1.80;88.80;101405.50;1636288;85;21544;-78
2022/12/05 09:56:44;;;;;;;52.48;28.35;;;;;;;1.78;88.73;101399.48;1637812;85;20969;-78
2022/12/05 09:59:29;;;;;;;52.55;26.27;;;;;;;1.77;88.74;101399.44;1635379;83;20915;-78
2022/12/05 10:02:25;;;;;;;54.45;28.55;;;;;;;1.75;88.77;101398.52;1636464;85;21046;-78
2022/12/05 10:05:30;;;;;;;54.08;26.90;;;;;;;1.79;88.86;101400.35;1634836;86;20938;-78
2022/12/05 10:08:42;;;;;;;58.38;29.15;;;;;;;1.78;88.86;101393.11;1638397;85;21011;-78
2022/12/05 10:11:53;;;;;;;53.15;28.35;;;;;;;1.81;88.86;101394.48;1638280;84;20982;-79
2022/12/05 10:14:58;;;;;;;51.42;28.02;;;;;;;1.79;88.79;101401.22;1640119;84;21023;-78
2022/12/05 10:17:51;;;;;;;61.25;28.20;;;;;;;1.80;88.78;101390.61;1638975;86;21359;-78
2022/12/05 10:20:43;;;;;;;61.68;29.85;;;;;;;1.79;88.83;101382.09;1641092;85;20971;-78
2022/12/05 10:23:39;;;;;;;57.75;30.05;;;;;;;1.81;88.83;101388.11;1639335;86;21345;-78
2022/12/05 10:26:28;;;;;;;;;;;;;;;1.82;88.83;101388.56;1646280;84;21010;-78
2022/12/05 10:29:23;;;;;;;66.40;27.13;;;;;;;1.84;88.86;101386.94;1643175;84;20194;-78
2022/12/05 10:32:31;;;;;;;55.40;27.87;;;;;;;1.85;88.83;101385.25;1638589;84;21038;-78
2022/12/05 10:35:24;;;;;;;55.23;28.35;;;;;;;1.85;88.78;101384.84;1640563;84;21418;-78
2022/12/05 10:38:26;;;;;;;59.48;30.05;;;;;;;1.84;88.76;101393.72;1637665;85;21435;-78
2022/12/05 10:41:14;;;;;;;56.90;28.35;;;;;;;1.82;88.71;101383.88;1640255;86;21407;-78
2022/12/05 10:43:59;;;;;;;57.73;28.98;;;;;;;1.82;88.75;101390.25;1643384;86;20922;-78
2022/12/05 10:46:44;;;;;;;55.98;29.15;;;;;;;1.79;88.75;101388.47;1641811;86;20951;-78
2022/12/05 10:49:30;;;;;;;58.08;27.80;;;;;;;1.78;88.73;101386.73;1639100;85;21452;-78
2022/12/05 10:52:15;;;;;;;58.10;30.30;;;;;;;1.79;88.78;101391.43;1638579;84;21942;-78
2022/12/05 10:55:05;;;;;;;61.77;28.47;;;;;;;1.81;88.79;101397.03;1637009;86;21067;-78
2022/12/05 10:57:55;;;;;;;51.90;27.70;;;;;;;1.82;88.79;101396.22;1633184;84;20942;-78
2022/12/05 11:00:45;;;;;;;53.60;27.98;;;;;;;1.86;88.89;101381.47;1633295;86;21406;-78
2022/12/05 11:03:40;;;;;;;58.80;30.57;;;;;;;1.90;88.86;101383.71;1629679;84;21449;-78
2022/12/05 11:06:28;;;;;;;64.50;30.37;;;;;;;1.93;88.86;101379.98;1612966;86;142119;-77
2022/12/05 11:09:18;;;;;;;58.10;29.52;;;;;;;1.94;88.80;101382.99;1637015;86;20929;-78
2022/12/05 11:12:17;;;;;;;57.73;29.35;;;;;;;1.96;88.82;101372.43;1639334;86;20909;-78
2022/12/05 11:15:24;;;;;;;56.00;29.40;;;;;;;1.98;88.83;101370.80;1641672;86;20921;-78
2022/12/05 11:18:27;;;;;;;52.48;28.35;;;;;;;1.99;88.82;101365.73;1641984;85;21380;-78
2022/12/05 11:21:14;;;;;;;73.90;35.85;;;;;;;1.98;88.76;101356.36;1642504;85;21069;-78
2022/12/05 11:24:04;;;;;;;64.45;31.77;;;;;;;2.00;88.84;101341.09;1639403;86;20954;-78
2022/12/05 11:26:49;;;;;;;58.90;29.85;;;;;;;2.01;88.75;101345.38;1644681;83;20957;-78
2022/12/05 11:29:37;;;;;;;63.05;31.42;;;;;;;2.00;88.77;101336.00;1639096;86;21379;-78
2022/12/05 11:32:26;;;;;;;63.10;31.23;;;;;;;2.00;88.75;101324.52;1639311;86;21005;-77
2022/12/05 11:35:16;;;;;;;63.45;31.73;;;;;;;2.02;88.77;101323.29;1640405;86;21521;-78
2022/12/05 11:38:04;;;;;;;54.77;28.40;;;;;;;2.02;88.77;101320.33;1640579;85;20972;-78
2022/12/05 11:41:12;;;;;;;57.03;29.98;;;;;;;2.03;88.79;101327.16;1637814;86;20977;-78
2022/12/05 11:44:11;;;;;;;62.00;31.12;;;;;;;2.03;88.77;101327.16;1636233;86;20933;-78
2022/12/05 11:47:10;;;;;;;55.92;29.75;;;;;;;2.03;88.74;101325.02;1639538;84;20926;-78
2022/12/05 11:50:09;;;;;;;54.27;28.83;;;;;;;2.05;88.79;101325.94;1598632;86;21001;-78
2022/12/05 11:53:25;;;;;;;55.10;31.40;;;;;;;2.05;88.79;101315.33;1651727;86;20964;-78
2022/12/05 11:56:35;;;;;;;63.42;30.17;;;;;;;2.08;88.77;101318.37;1650664;85;21033;-78
2022/12/05 11:59:55;;;;;;;57.15;29.30;;;;;;;2.08;88.74;101327.30;1649968;86;21380;-78
2022/12/05 12:03:10;;;;;;;61.33;30.75;;;;;;;2.04;88.70;101325.48;1654258;86;21572;-78
2022/12/05 12:06:14;;;;;;;61.88;31.37;;;;;;;2.07;88.77;101325.57;1652072;85;21354;-78
2022/12/05 12:09:16;;;;;;;58.97;30.83;;;;;;;2.02;88.67;101322.02;1601288;83;5001064;-77
2022/12/05 12:12:21;;;;;;;56.00;30.30;;;;;;;2.01;88.70;101318.60;1680758;84;21005;-77
2022/12/05 12:15:46;;;;;;;64.40;31.25;;;;;;;2.02;88.76;101315.64;1680308;83;20969;-77
2022/12/05 12:18:48;;;;;;;63.17;31.05;;;;;;;2.04;88.81;101300.84;1682046;83;20932;-77
2022/12/05 12:22:02;;;;;;;56.73;30.75;;;;;;;2.04;88.70;101309.77;1680893;84;20936;-78
2022/12/05 12:25:01;;;;;;;63.78;31.73;;;;;;;2.02;88.70;101310.12;1681420;84;21040;-77
2022/12/05 12:28:09;;;;;;;59.83;30.88;;;;;;;2.01;88.70;101307.13;1681186;84;21399;-75
2022/12/05 12:31:20;;;;;;;63.33;33.80;;;;;;;2.04;88.78;101304.66;1682365;83;21524;-75
2022/12/05 12:34:22;;;;;;;64.62;31.95;;;;;;;2.07;88.77;101302.20;1680184;84;20936;-75
2022/12/05 12:37:42;;;;;;;65.35;33.35;;;;;;;2.09;88.78;101297.98;1681485;83;21419;-75
2022/12/05 12:40:49;;;;;;;64.03;33.38;;;;;;;2.11;88.75;101295.47;1682893;84;20926;-75
2022/12/05 12:43:48;;;;;;;65.25;33.75;;;;;;;2.10;88.65;101285.68;1681042;84;20921;-75
2022/12/05 12:47:01;;;;;;;64.35;31.00;;;;;;;2.08;88.68;101284.77;1681423;84;21013;-75
2022/12/05 12:50:11;;;;;;;60.95;32.15;;;;;;;2.09;88.69;101281.81;1680731;83;21240;-75
2022/12/05 12:53:38;;;;;;;65.95;32.13;;;;;;;2.09;88.73;101276.30;1631802;85;21411;-75
2022/12/05 12:56:57;;;;;;;59.70;32.15;;;;;;;2.11;88.73;101279.76;1671024;85;20957;-75
2022/12/05 12:59:56;;;;;;;56.70;30.00;;;;;;;2.13;88.76;101279.39;1670793;85;21050;-77
2022/12/05 13:02:51;;;;;;;63.50;30.88;;;;;;;2.13;88.69;101291.28;1670630;83;21037;-75
2022/12/05 13:05:49;;;;;;;64.67;32.00;;;;;;;2.10;88.68;101286.95;1670188;85;21002;-75
2022/12/05 13:08:51;;;;;;;64.27;29.57;;;;;;;2.07;88.66;101287.31;1669161;85;21568;-75